createdAt,value
2018-05-31T00:00:35.771Z,20.20
2018-05-31T00:03:03.445Z,20.20
2018-05-31T00:05:31.169Z,20.20
2018-05-31T00:07:58.933Z,20.20
2018-05-31T00:10:26.696Z,20.10
2018-05-31T00:12:54.461Z,20.10
2018-05-31T00:15:22.149Z,20.10
2018-05-31T00:17:49.823Z,20.10
2018-05-31T00:20:17.521Z,20.00
2018-05-31T00:22:45.190Z,20.00
2018-05-31T00:25:13.703Z,20.00
2018-05-31T00:27:41.482Z,20.00
2018-05-31T00:30:09.243Z,20.00
2018-05-31T00:32:36.914Z,20.00
2018-05-31T00:35:04.601Z,20.00
2018-05-31T00:37:32.331Z,20.00
2018-05-31T00:40:00.019Z,20.00
2018-05-31T00:42:27.704Z,20.10
2018-05-31T00:44:55.377Z,20.00
2018-05-31T00:47:23.910Z,20.00
2018-05-31T00:49:51.590Z,20.00
2018-05-31T00:52:19.331Z,20.00
2018-05-31T00:54:47.007Z,20.00
2018-05-31T00:57:14.784Z,20.00
2018-05-31T00:59:42.518Z,20.00
2018-05-31T01:02:10.220Z,19.90
2018-05-31T01:04:37.956Z,19.90
2018-05-31T01:07:05.636Z,19.90
2018-05-31T01:09:33.303Z,19.90
2018-05-31T01:12:01.073Z,19.90
2018-05-31T01:14:29.435Z,19.90
2018-05-31T01:16:57.213Z,19.90
2018-05-31T01:19:24.873Z,19.90
2018-05-31T01:21:52.604Z,19.80
2018-05-31T01:24:20.375Z,19.80
2018-05-31T01:26:48.133Z,19.80
2018-05-31T01:29:15.807Z,19.80
2018-05-31T01:31:43.487Z,19.80
2018-05-31T01:34:11.260Z,19.80
2018-05-31T01:36:38.998Z,19.80
2018-05-31T01:39:07.407Z,19.80
2018-05-31T01:41:35.109Z,19.80
2018-05-31T01:44:03.620Z,19.70
2018-05-31T01:46:31.288Z,19.70
2018-05-31T01:48:58.984Z,19.70
2018-05-31T01:51:26.672Z,19.70
2018-05-31T01:53:54.413Z,19.60
2018-05-31T01:56:22.074Z,19.60
2018-05-31T01:58:49.757Z,19.70
2018-05-31T02:01:18.190Z,19.70
2018-05-31T02:03:45.881Z,19.70
2018-05-31T02:06:13.598Z,19.70
2018-05-31T02:08:41.286Z,19.70
2018-05-31T02:11:08.993Z,19.70
2018-05-31T02:13:36.669Z,19.60
2018-05-31T02:16:05.112Z,19.60
2018-05-31T02:18:32.868Z,19.60
2018-05-31T02:21:00.535Z,19.50
2018-05-31T02:23:28.264Z,19.50
2018-05-31T02:25:56.038Z,19.50
2018-05-31T02:28:23.808Z,19.50
2018-05-31T02:30:51.576Z,19.50
2018-05-31T02:33:19.266Z,19.50
2018-05-31T02:35:47.012Z,19.40
2018-05-31T02:38:14.695Z,19.40
2018-05-31T02:40:42.424Z,19.40
2018-05-31T02:43:10.187Z,19.50
2018-05-31T02:45:37.866Z,19.50
2018-05-31T02:48:05.615Z,19.40
2018-05-31T02:50:33.379Z,19.40
2018-05-31T02:53:01.068Z,19.50
2018-05-31T02:55:28.808Z,19.40
2018-05-31T02:57:56.495Z,19.40
2018-05-31T03:00:24.270Z,19.40
2018-05-31T03:02:52.016Z,19.40
2018-05-31T03:05:19.768Z,19.30
2018-05-31T03:07:47.492Z,19.30
2018-05-31T03:10:15.201Z,19.30
2018-05-31T03:12:42.874Z,19.30
2018-05-31T03:15:10.554Z,19.40
2018-05-31T03:17:38.290Z,19.30
2018-05-31T03:20:06.058Z,19.40
2018-05-31T03:22:33.734Z,19.40
2018-05-31T03:25:01.440Z,19.40
2018-05-31T03:27:29.962Z,19.40
2018-05-31T03:29:57.650Z,19.40
2018-05-31T03:32:25.318Z,19.40
2018-05-31T03:34:53.023Z,19.40
2018-05-31T03:37:21.580Z,19.40
2018-05-31T03:39:49.267Z,19.40
2018-05-31T03:42:17.705Z,19.40
2018-05-31T03:44:45.400Z,19.40
2018-05-31T03:47:13.960Z,19.40
2018-05-31T03:49:41.724Z,19.40
2018-05-31T03:52:09.379Z,19.50
2018-05-31T03:54:37.128Z,19.60
2018-05-31T03:57:04.904Z,19.60
2018-05-31T03:59:32.761Z,19.60
2018-05-31T04:02:00.521Z,19.60
2018-05-31T04:04:28.193Z,19.70
2018-05-31T04:06:55.941Z,19.70
2018-05-31T04:09:23.627Z,19.70
2018-05-31T04:11:51.306Z,19.70
2018-05-31T04:14:19.754Z,19.70
2018-05-31T04:16:47.449Z,19.70
2018-05-31T04:19:16.362Z,19.90
2018-05-31T04:21:44.063Z,20.00
2018-05-31T04:24:11.732Z,20.10
2018-05-31T04:26:39.502Z,20.10
2018-05-31T04:29:07.151Z,20.20
2018-05-31T04:31:34.901Z,20.30
2018-05-31T04:34:02.578Z,20.30
2018-05-31T04:36:30.265Z,20.40
2018-05-31T04:38:57.937Z,20.50
2018-05-31T04:41:26.443Z,20.60
2018-05-31T04:43:54.946Z,20.70
2018-05-31T04:46:22.634Z,20.60
2018-05-31T04:48:50.378Z,20.80
2018-05-31T04:51:18.137Z,20.90
2018-05-31T04:53:45.836Z,20.90
2018-05-31T04:56:13.565Z,21.00
2018-05-31T04:58:41.464Z,21.00
2018-05-31T05:01:09.210Z,21.00
2018-05-31T05:03:36.895Z,21.10
2018-05-31T05:06:04.570Z,21.10
2018-05-31T05:08:32.320Z,21.10
2018-05-31T05:11:00.007Z,21.10
2018-05-31T05:13:27.683Z,21.20
2018-05-31T05:15:56.197Z,21.30
2018-05-31T05:18:23.860Z,21.30
2018-05-31T05:20:51.553Z,21.30
2018-05-31T05:23:19.216Z,21.40
2018-05-31T05:25:46.898Z,21.40
2018-05-31T05:28:14.566Z,21.40
2018-05-31T05:30:43.090Z,21.50
2018-05-31T05:33:10.772Z,21.50
2018-05-31T05:35:38.458Z,21.60
2018-05-31T05:38:06.200Z,21.70
2018-05-31T05:40:33.892Z,21.80
2018-05-31T05:43:01.589Z,21.90
2018-05-31T05:45:30.099Z,22.10
2018-05-31T05:47:57.799Z,22.10
2018-05-31T05:50:27.042Z,22.20
2018-05-31T05:52:54.717Z,22.20
2018-05-31T05:55:22.396Z,22.40
2018-05-31T05:57:50.156Z,22.40
2018-05-31T06:00:17.819Z,22.50
2018-05-31T06:02:45.578Z,22.60
2018-05-31T06:05:13.249Z,22.60
2018-05-31T06:07:40.938Z,22.70
2018-05-31T06:10:08.660Z,22.80
2018-05-31T06:12:36.302Z,23.00
2018-05-31T06:15:04.746Z,23.30
2018-05-31T06:17:32.509Z,23.20
2018-05-31T06:20:00.168Z,23.40
2018-05-31T06:22:27.938Z,23.40
2018-05-31T06:24:55.595Z,23.50
2018-05-31T06:27:23.351Z,23.70
2018-05-31T06:29:51.135Z,23.80
2018-05-31T06:32:18.896Z,24.00
2018-05-31T06:34:46.643Z,24.00
2018-05-31T06:37:14.425Z,24.00
2018-05-31T06:39:42.066Z,24.00
2018-05-31T06:42:09.827Z,24.20
2018-05-31T06:44:37.503Z,24.30
2018-05-31T06:47:05.191Z,24.20
2018-05-31T06:49:32.861Z,24.20
2018-05-31T06:52:00.563Z,24.30
2018-05-31T06:54:28.270Z,24.40
2018-05-31T06:56:55.935Z,24.40
2018-05-31T06:59:23.590Z,24.50
2018-05-31T07:01:51.930Z,24.60
2018-05-31T07:04:19.606Z,24.70
2018-05-31T07:06:47.305Z,24.80
2018-05-31T07:09:15.042Z,24.90
2018-05-31T07:11:42.723Z,24.90
2018-05-31T07:14:11.983Z,25.00
2018-05-31T07:16:39.774Z,25.00
2018-05-31T07:19:07.439Z,25.10
2018-05-31T07:21:35.173Z,25.10
2018-05-31T07:24:02.867Z,25.20
2018-05-31T07:26:30.632Z,25.30
2018-05-31T07:28:58.294Z,25.40
2018-05-31T07:31:26.056Z,25.50
2018-05-31T07:33:53.789Z,25.50
2018-05-31T07:36:21.553Z,25.70
2018-05-31T07:38:49.316Z,25.90
2018-05-31T07:41:17.050Z,26.00
2018-05-31T07:43:45.612Z,26.10
2018-05-31T07:46:13.334Z,26.10
2018-05-31T07:48:41.022Z,26.00
2018-05-31T07:51:08.691Z,26.10
2018-05-31T07:53:36.385Z,26.30
2018-05-31T07:56:04.901Z,26.40
2018-05-31T07:58:32.669Z,26.40
2018-05-31T08:01:00.363Z,26.60
2018-05-31T08:03:28.099Z,26.70
2018-05-31T08:05:55.772Z,26.70
2018-05-31T08:08:23.455Z,26.80
2018-05-31T08:10:51.220Z,26.90
2018-05-31T08:13:18.869Z,27.00
2018-05-31T08:15:46.545Z,27.00
2018-05-31T08:18:14.287Z,27.30
2018-05-31T08:20:42.742Z,27.50
2018-05-31T08:23:11.178Z,27.40
2018-05-31T08:25:39.659Z,27.60
2018-05-31T08:28:07.330Z,27.50
2018-05-31T08:30:35.082Z,27.70
2018-05-31T08:33:02.813Z,27.80
2018-05-31T08:35:30.603Z,27.90
2018-05-31T08:37:58.278Z,27.90
2018-05-31T08:40:26.040Z,27.90
2018-05-31T08:42:53.690Z,28.10
2018-05-31T08:45:21.367Z,28.20
2018-05-31T08:47:49.069Z,28.20
2018-05-31T08:50:17.577Z,28.40
2018-05-31T08:52:45.256Z,28.40
2018-05-31T08:55:12.942Z,28.40
2018-05-31T08:57:40.601Z,28.50
2018-05-31T09:00:08.341Z,28.50
2018-05-31T09:02:36.029Z,28.60
2018-05-31T09:05:03.721Z,28.70
2018-05-31T09:07:31.393Z,28.90
2018-05-31T09:09:59.939Z,29.20
2018-05-31T09:12:27.588Z,29.20
2018-05-31T09:14:55.283Z,29.10
2018-05-31T09:17:23.033Z,29.20
2018-05-31T09:19:50.693Z,29.30
2018-05-31T09:22:18.440Z,29.40
2018-05-31T09:24:46.173Z,29.50
2018-05-31T09:27:14.610Z,29.60
2018-05-31T09:29:42.369Z,29.60
2018-05-31T09:32:10.005Z,29.50
2018-05-31T09:34:37.800Z,29.60
2018-05-31T09:37:05.441Z,29.70
2018-05-31T09:39:33.226Z,29.80
2018-05-31T09:42:00.961Z,29.70
2018-05-31T09:44:28.638Z,29.80
2018-05-31T09:46:56.335Z,30.00
2018-05-31T09:49:24.021Z,30.00
2018-05-31T09:51:51.700Z,30.10
2018-05-31T09:54:19.381Z,30.10
2018-05-31T09:56:47.075Z,30.10
2018-05-31T09:59:14.750Z,30.10
2018-05-31T10:01:42.420Z,30.10
2018-05-31T10:04:10.108Z,30.20
2018-05-31T10:06:37.821Z,30.20
2018-05-31T10:09:05.493Z,30.30
2018-05-31T10:11:33.248Z,30.40
2018-05-31T10:14:00.980Z,30.50
2018-05-31T10:16:28.656Z,30.70
2018-05-31T10:18:56.421Z,30.90
2018-05-31T10:21:24.098Z,31.00
2018-05-31T10:23:51.837Z,30.90
2018-05-31T10:26:19.513Z,31.00
2018-05-31T10:28:47.197Z,31.10
2018-05-31T10:31:14.889Z,31.30
2018-05-31T10:33:42.587Z,31.20
2018-05-31T10:36:10.284Z,31.30
2018-05-31T10:38:37.953Z,31.20
2018-05-31T10:41:05.682Z,31.30
2018-05-31T10:43:33.355Z,31.50
2018-05-31T10:46:01.118Z,31.50
2018-05-31T10:48:28.801Z,31.50
2018-05-31T10:50:56.536Z,31.50
2018-05-31T10:53:24.202Z,31.40
2018-05-31T10:55:52.067Z,31.30
2018-05-31T10:58:19.713Z,31.20
2018-05-31T11:00:47.495Z,31.20
2018-05-31T11:03:15.164Z,31.30
2018-05-31T11:05:42.864Z,31.50
2018-05-31T11:08:10.546Z,31.70
2018-05-31T11:10:39.036Z,31.80
2018-05-31T11:13:07.582Z,31.70
2018-05-31T11:15:35.244Z,31.80
2018-05-31T11:18:02.943Z,31.80
2018-05-31T11:20:31.493Z,32.00
2018-05-31T11:22:59.226Z,32.00
2018-05-31T11:25:26.930Z,31.70
2018-05-31T11:27:54.685Z,32.00
2018-05-31T11:30:22.417Z,32.10
2018-05-31T11:32:50.099Z,32.30
2018-05-31T11:35:17.845Z,32.40
2018-05-31T11:37:45.542Z,32.50
2018-05-31T11:40:13.289Z,32.70
2018-05-31T11:42:41.043Z,32.80
2018-05-31T11:45:08.730Z,33.00
2018-05-31T11:47:36.407Z,33.00
2018-05-31T11:50:04.126Z,33.20
2018-05-31T11:52:31.794Z,33.10
2018-05-31T11:54:59.489Z,33.20
2018-05-31T11:57:27.154Z,33.30
2018-05-31T11:59:55.610Z,33.10
2018-05-31T12:02:23.373Z,33.00
2018-05-31T12:04:51.113Z,33.10
2018-05-31T12:07:18.806Z,33.30
2018-05-31T12:09:46.478Z,33.50
2018-05-31T12:12:14.201Z,34.80
2018-05-31T12:14:42.639Z,36.40
2018-05-31T12:17:11.224Z,38.10
2018-05-31T12:19:38.907Z,38.10
2018-05-31T12:22:07.353Z,42.00
2018-05-31T12:24:35.045Z,41.90
2018-05-31T12:27:02.717Z,42.50
2018-05-31T12:29:31.150Z,44.30
2018-05-31T12:31:58.835Z,44.20
2018-05-31T12:34:26.597Z,44.60
2018-05-31T12:36:54.259Z,44.90
2018-05-31T12:39:21.939Z,45.60
2018-05-31T12:41:49.633Z,46.60
2018-05-31T12:44:17.307Z,46.10
2018-05-31T12:46:44.989Z,44.70
2018-05-31T12:49:12.664Z,45.30
2018-05-31T12:51:40.442Z,46.10
2018-05-31T12:54:08.100Z,46.70
2018-05-31T12:56:35.779Z,47.10
2018-05-31T12:59:03.437Z,46.90
2018-05-31T13:01:31.129Z,46.50
2018-05-31T13:03:59.577Z,47.20
2018-05-31T13:06:27.319Z,47.20
2018-05-31T13:08:55.069Z,47.50
2018-05-31T13:11:22.843Z,46.60
2018-05-31T13:13:50.510Z,46.50
2018-05-31T13:16:18.211Z,46.20
2018-05-31T13:18:45.891Z,42.70
2018-05-31T13:21:14.405Z,39.90
2018-05-31T13:23:42.170Z,39.80
2018-05-31T13:26:09.849Z,38.50
2018-05-31T13:28:37.531Z,37.60
2018-05-31T13:31:05.270Z,36.70
2018-05-31T13:33:32.959Z,36.00
2018-05-31T13:36:00.642Z,35.40
2018-05-31T13:38:28.327Z,35.20
2018-05-31T13:40:56.760Z,36.70
2018-05-31T13:43:24.533Z,36.70
2018-05-31T13:45:52.183Z,37.20
2018-05-31T13:48:19.944Z,37.30
2018-05-31T13:50:47.601Z,37.00
2018-05-31T13:53:15.370Z,36.70
2018-05-31T13:55:43.135Z,37.30
2018-05-31T13:58:10.822Z,38.90
2018-05-31T14:00:38.581Z,40.70
2018-05-31T14:03:06.271Z,41.50
2018-05-31T14:05:34.718Z,43.70
2018-05-31T14:08:02.469Z,43.70
2018-05-31T14:10:30.137Z,43.10
2018-05-31T14:12:57.835Z,42.30
2018-05-31T14:15:25.562Z,42.80
2018-05-31T14:17:53.250Z,42.00
2018-05-31T14:20:20.931Z,40.90
2018-05-31T14:22:48.634Z,40.70
2018-05-31T14:25:16.299Z,41.80
2018-05-31T14:27:43.986Z,42.70
2018-05-31T14:30:11.662Z,43.00
2018-05-31T14:32:39.391Z,43.80
2018-05-31T14:35:07.604Z,44.50
2018-05-31T14:37:35.285Z,45.00
2018-05-31T14:40:02.959Z,45.10
2018-05-31T14:42:31.492Z,43.00
2018-05-31T14:44:59.266Z,42.90
2018-05-31T14:47:26.953Z,42.80
2018-05-31T14:49:54.627Z,43.60
2018-05-31T14:52:22.339Z,43.20
2018-05-31T14:54:50.095Z,43.00
2018-05-31T14:57:17.783Z,42.90
2018-05-31T14:59:45.456Z,43.20
2018-05-31T15:02:13.123Z,42.40
2018-05-31T15:04:40.826Z,41.50
2018-05-31T15:07:08.507Z,40.50
2018-05-31T15:09:36.281Z,39.40
2018-05-31T15:12:04.042Z,38.00
2018-05-31T15:14:31.733Z,37.30
2018-05-31T15:16:59.454Z,36.00
2018-05-31T15:19:27.108Z,35.70
2018-05-31T15:21:55.636Z,36.60
2018-05-31T15:24:23.420Z,36.60
2018-05-31T15:26:51.062Z,37.80
2018-05-31T15:29:18.751Z,38.80
2018-05-31T15:31:46.425Z,39.60
2018-05-31T15:34:14.113Z,40.60
2018-05-31T15:36:42.551Z,41.20
2018-05-31T15:39:10.301Z,41.10
2018-05-31T15:41:37.979Z,41.70
2018-05-31T15:44:05.670Z,41.40
2018-05-31T15:46:34.134Z,40.50
2018-05-31T15:49:01.891Z,40.50
2018-05-31T15:51:29.541Z,40.60
2018-05-31T15:53:57.231Z,40.20
2018-05-31T15:56:24.903Z,40.60
2018-05-31T15:58:53.364Z,39.90
2018-05-31T16:01:21.127Z,39.90
2018-05-31T16:03:48.790Z,38.90
2018-05-31T16:06:16.463Z,38.30
2018-05-31T16:08:44.168Z,37.50
2018-05-31T16:11:11.825Z,36.80
2018-05-31T16:13:39.511Z,36.40
2018-05-31T16:16:07.187Z,35.80
2018-05-31T16:18:34.962Z,35.10
2018-05-31T16:21:02.700Z,34.80
2018-05-31T16:23:30.383Z,34.80
2018-05-31T16:25:58.067Z,34.90
2018-05-31T16:28:25.869Z,35.00
2018-05-31T16:30:53.495Z,34.80
2018-05-31T16:33:21.170Z,34.50
2018-05-31T16:35:48.957Z,34.10
2018-05-31T16:38:16.621Z,33.60
2018-05-31T16:40:44.345Z,33.30
2018-05-31T16:43:12.486Z,33.10
2018-05-31T16:45:40.233Z,32.90
2018-05-31T16:48:08.009Z,32.60
2018-05-31T16:50:35.716Z,32.30
2018-05-31T16:53:04.164Z,32.30
2018-05-31T16:55:31.861Z,32.40
2018-05-31T16:58:00.371Z,32.40
2018-05-31T17:00:28.049Z,32.40
2018-05-31T17:02:55.727Z,32.40
2018-05-31T17:05:23.442Z,32.30
2018-05-31T17:07:51.930Z,33.30
2018-05-31T17:10:19.583Z,33.20
2018-05-31T17:12:47.261Z,34.10
2018-05-31T17:15:14.993Z,34.90
2018-05-31T17:17:42.613Z,35.20
2018-05-31T17:20:10.319Z,35.60
2018-05-31T17:22:38.765Z,36.30
2018-05-31T17:25:06.469Z,36.30
2018-05-31T17:27:34.901Z,36.60
2018-05-31T17:30:02.604Z,36.50
2018-05-31T17:32:30.343Z,36.70
2018-05-31T17:34:58.060Z,36.70
2018-05-31T17:37:26.471Z,36.60
2018-05-31T17:39:54.178Z,36.60
2018-05-31T17:42:21.841Z,36.60
2018-05-31T17:44:50.297Z,36.10
2018-05-31T17:47:17.981Z,36.10
2018-05-31T17:49:45.668Z,35.50
2018-05-31T17:52:13.333Z,35.00
2018-05-31T17:54:41.151Z,34.50
2018-05-31T17:57:08.785Z,34.00
2018-05-31T17:59:37.921Z,33.50
2018-05-31T18:02:05.679Z,33.20
2018-05-31T18:04:33.345Z,33.20
2018-05-31T18:07:01.251Z,33.20
2018-05-31T18:09:28.933Z,33.30
2018-05-31T18:11:56.739Z,33.30
2018-05-31T18:14:24.387Z,33.50
2018-05-31T18:16:52.062Z,33.50
2018-05-31T18:19:19.834Z,33.50
2018-05-31T18:21:47.501Z,33.50
2018-05-31T18:24:15.230Z,33.50
2018-05-31T18:26:42.990Z,33.30
2018-05-31T18:29:10.766Z,33.10
2018-05-31T18:31:38.521Z,32.90
2018-05-31T18:34:06.207Z,32.80
2018-05-31T18:36:34.399Z,32.60
2018-05-31T18:39:02.053Z,32.50
2018-05-31T18:41:29.729Z,32.50
2018-05-31T18:43:57.401Z,32.50
2018-05-31T18:46:25.101Z,32.40
2018-05-31T18:48:52.765Z,32.40
2018-05-31T18:51:20.547Z,32.20
2018-05-31T18:53:48.218Z,31.90
2018-05-31T18:56:16.006Z,31.60
2018-05-31T18:58:43.646Z,31.40
2018-05-31T19:01:11.396Z,31.10
2018-05-31T19:03:39.167Z,30.80
2018-05-31T19:06:07.277Z,30.60
2018-05-31T19:08:35.262Z,30.40
2018-05-31T19:11:03.077Z,30.20
2018-05-31T19:13:36.585Z,30.00
2018-05-31T19:16:04.255Z,29.80
2018-05-31T19:18:37.669Z,29.60
2018-05-31T19:21:05.359Z,29.50
2018-05-31T19:23:33.911Z,29.20
2018-05-31T19:26:01.565Z,29.20
2018-05-31T19:28:29.238Z,29.10
2018-05-31T19:31:02.807Z,29.00
2018-05-31T19:33:42.916Z,28.80
2018-05-31T19:36:16.475Z,28.70
2018-05-31T19:38:44.151Z,28.60
2018-05-31T19:41:11.902Z,28.50
2018-05-31T19:43:45.258Z,28.40
2018-05-31T19:46:12.964Z,28.30
2018-05-31T19:48:40.631Z,28.30
2018-05-31T19:51:08.305Z,28.20
2018-05-31T19:53:41.770Z,28.20
2018-05-31T19:56:09.552Z,28.10
2018-05-31T19:58:42.987Z,28.10
2018-05-31T20:01:16.543Z,28.00
2018-05-31T20:03:44.227Z,27.90
2018-05-31T20:06:11.965Z,27.80
2018-05-31T20:08:39.808Z,27.80
2018-05-31T20:11:08.248Z,27.70
2018-05-31T20:13:35.977Z,27.70
2018-05-31T20:16:03.723Z,27.60
2018-05-31T20:18:31.407Z,27.60
2018-05-31T20:20:59.077Z,27.60
2018-05-31T20:23:26.759Z,27.50
2018-05-31T20:25:55.777Z,27.50
2018-05-31T20:28:23.554Z,27.40
2018-05-31T20:30:51.539Z,27.40
2018-05-31T20:33:20.101Z,27.20
2018-05-31T20:35:47.858Z,27.20
2018-05-31T20:38:15.731Z,27.20
2018-05-31T20:40:43.456Z,27.10
2018-05-31T20:43:11.231Z,27.10
2018-05-31T20:45:38.951Z,27.10
2018-05-31T20:48:06.914Z,26.90
2018-05-31T20:50:34.702Z,26.80
2018-05-31T20:53:02.552Z,26.80
2018-05-31T20:55:31.044Z,26.70
2018-05-31T20:57:58.954Z,26.80
2018-05-31T21:00:26.743Z,26.70
2018-05-31T21:02:54.416Z,26.60
2018-05-31T21:05:22.097Z,26.60
2018-05-31T21:07:50.542Z,26.60
2018-05-31T21:10:18.206Z,26.50
2018-05-31T21:12:45.900Z,26.60
2018-05-31T21:15:14.430Z,26.50
2018-05-31T21:17:42.111Z,26.50
2018-05-31T21:20:09.775Z,26.60
2018-05-31T21:22:37.501Z,26.50
2018-05-31T21:25:05.262Z,26.50
2018-05-31T21:27:32.945Z,26.40
2018-05-31T21:30:00.621Z,26.30
2018-05-31T21:32:28.286Z,26.30
2018-05-31T21:34:55.977Z,26.20
2018-05-31T21:37:24.600Z,26.20
2018-05-31T21:39:52.361Z,26.20
2018-05-31T21:42:20.035Z,26.10
2018-05-31T21:44:47.722Z,26.00
2018-05-31T21:47:15.399Z,26.00
2018-05-31T21:49:43.086Z,26.00
2018-05-31T21:52:11.603Z,25.90
2018-05-31T21:54:39.277Z,25.90
2018-05-31T21:57:07.031Z,25.90
2018-05-31T21:59:34.713Z,25.80
2018-05-31T22:02:02.495Z,25.70
2018-05-31T22:04:30.152Z,25.70
2018-05-31T22:06:57.828Z,25.70
2018-05-31T22:09:26.520Z,25.60
2018-05-31T22:11:54.191Z,25.60
2018-05-31T22:14:21.876Z,25.50
2018-05-31T22:16:49.546Z,25.40
2018-05-31T22:19:17.369Z,25.40
2018-05-31T22:21:45.015Z,25.40
2018-05-31T22:24:12.753Z,25.30
2018-05-31T22:26:40.537Z,25.30
2018-05-31T22:29:08.206Z,25.20
2018-05-31T22:31:35.899Z,25.20
2018-05-31T22:34:03.581Z,25.10
2018-05-31T22:36:32.124Z,25.00
2018-05-31T22:38:59.977Z,25.00
2018-05-31T22:41:27.743Z,25.00
2018-05-31T22:43:55.458Z,24.90
2018-05-31T22:46:23.895Z,24.90
2018-05-31T22:48:51.573Z,24.80
2018-05-31T22:51:19.305Z,24.80
2018-05-31T22:53:46.990Z,24.80
2018-05-31T22:56:14.673Z,24.70
2018-05-31T22:58:42.357Z,24.60
2018-05-31T23:01:10.799Z,24.50
2018-05-31T23:03:38.485Z,24.40
2018-05-31T23:06:06.151Z,24.40
2018-05-31T23:08:40.493Z,24.20
2018-05-31T23:11:08.161Z,24.20
2018-05-31T23:13:35.835Z,24.10
2018-05-31T23:16:03.522Z,24.10
2018-05-31T23:18:31.195Z,24.10
2018-05-31T23:20:58.887Z,24.00
2018-05-31T23:23:26.568Z,24.00
2018-05-31T23:25:55.025Z,24.10
2018-05-31T23:28:22.697Z,24.00
2018-05-31T23:30:51.238Z,23.90
2018-05-31T23:33:18.909Z,23.90
2018-05-31T23:35:46.593Z,23.90
2018-05-31T23:38:15.779Z,23.80
2018-05-31T23:40:43.471Z,23.90
2018-05-31T23:43:11.904Z,23.90
2018-05-31T23:45:39.652Z,23.90
2018-05-31T23:48:07.350Z,23.90
2018-05-31T23:50:35.089Z,23.90
2018-05-31T23:53:02.859Z,23.90
2018-05-31T23:55:30.574Z,23.80
2018-05-31T23:57:59.027Z,23.80
